Latest Weather Observations for Cape Naturaliste

IDW60801

Issued at 10:04 am WST Sunday 28 August 2016 (issued every 30 minutes, with the page automatically refreshed every 10 minutes)

About weather observations | Map of weather stations | Latest weather observations for WA | Other Formats
Station Details ID: 009519 Name: CAPE NATURALISTE Lat: -33.54 Lon: 115.02 Height: 109.0 m
Data from the previous 72 hours. | See also: Recent months at Cape Naturaliste
Date/Time
WST
Temp
°C
App
Temp
°C
Dew
Point
°C
Rel
Hum
%
Delta-T
°C
Wind Press
QNH
hPa
Press
MSL
hPa
Rain since
9am
mm
Dir  Spd
km/h
Gust
km/h
Spd
kts
Gust
kts
28/10:00am 10.8 2.5 9.2 90 0.8 S 43 56 23 30 1011.6 1011.5 0.4
28/09:31am 10.6 3.0 9.0 90 0.8 S 39 57 21 31 1011.4 1011.3 0.4
28/09:30am 10.7 3.1 9.1 90 0.8 S 39 52 21 28 1011.5 1011.4 0.4
28/09:18am 10.4 2.3 8.8 90 0.8 S 41 59 22 32 1011.4 1011.3 0.2
28/09:00am 10.2 2.9 8.6 90 0.8 S 37 52 20 28 1011.4 1011.3 13.4
28/08:30am 10.1 2.0 8.7 91 0.7 S 41 59 22 32 1011.0 1010.9 13.2
28/08:28am 10.2 2.5 8.8 91 0.7 S 39 57 21 31 1011.0 1010.9 13.2
28/08:00am 9.4 1.1 7.8 90 0.8 S 41 56 22 30 1010.7 1010.6 12.8
28/07:47am 9.4 1.1 7.8 90 0.8 S 41 59 22 32 1010.4 1010.3 12.6
28/07:30am 9.3 0.4 7.7 90 0.8 S 44 57 24 31 1010.1 1010.0 12.6
28/07:00am 9.3 0.6 7.7 90 0.8 S 43 67 23 36 1009.7 1009.6 12.2
28/06:30am 9.1 -0.2 7.5 90 0.8 SSW 46 69 25 37 1009.5 1009.4 12.2
28/06:07am 9.5 0.8 7.9 90 0.8 S 43 61 23 33 1009.2 1009.2 11.4
28/06:00am 9.3 0.0 7.7 90 0.8 S 46 61 25 33 1009.0 1009.0 11.2
28/05:30am 9.3 -0.7 7.7 90 0.8 SSW 50 72 27 39 1008.4 1008.4 11.0
28/05:00am 9.4 1.1 7.8 90 0.8 S 41 69 22 37 1008.3 1008.3 10.8
28/04:30am 9.3 -0.4 7.7 90 0.8 S 48 76 26 41 1008.0 1008.0 10.0
28/04:15am 9.2 1.2 7.6 90 0.8 S 39 61 21 33 1008.0 1008.0 10.0
28/04:09am 9.5 -0.1 7.9 90 0.8 SSW 48 72 26 39 1008.1 1008.1 9.8
28/04:00am 9.4 -1.7 7.8 90 0.8 SSW 56 74 30 40 1007.7 1007.7 9.8
28/03:30am 9.3 0.4 7.7 90 0.8 SSW 44 74 24 40 1007.7 1007.7 9.6
28/03:00am 9.6 0.8 8.2 91 0.7 SSW 44 69 24 37 1007.5 1007.5 9.2
28/02:30am 9.0 1.0 7.5 90 0.7 S 39 57 21 31 1007.6 1007.6 8.6
28/02:00am 9.6 1.4 8.0 90 0.8 SSW 41 74 22 40 1007.5 1007.5 8.2
28/01:33am 8.9 0.9 7.4 90 0.7 S 39 59 21 32 1007.3 1007.3 7.8
28/01:30am 9.0 1.0 7.5 90 0.7 S 39 50 21 27 1007.3 1007.3 7.4
28/01:03am 9.6 1.0 8.0 90 0.8 S 43 65 23 35 1007.0 1007.0 6.8
28/01:00am 9.4 0.7 7.8 90 0.8 S 43 59 23 32 1007.0 1007.0 6.8
28/12:30am 9.4 1.5 7.8 90 0.8 S 39 57 21 31 1006.9 1006.9 6.8
28/12:00am 9.5 0.8 7.8 89 0.8 S 43 61 23 33 1006.6 1006.6 6.4
 
Date/Time
WST
Temp
°C
App
Temp
°C
Dew
Point
°C
Rel
Hum
%
Delta-T
°C
Wind Press
QNH
hPa
Press
MSL
hPa
Rain since
9am
mm
Dir  Spd
km/h
Gust
km/h
Spd
kts
Gust
kts
27/11:30pm 9.4 1.1 7.7 89 0.8 S 41 61 22 33 1006.3 1006.3 6.0
27/11:00pm 9.6 0.8 7.9 89 0.8 S 44 63 24 34 1006.3 1006.3 5.2
27/10:30pm 10.0 -0.3 8.1 88 0.9 SSW 52 78 28 42 1006.0 1006.0 5.0
27/10:00pm 9.8 0.1 7.7 87 1.0 SSW 48 67 26 36 1005.7 1005.7 3.6
27/09:30pm 10.1 -0.2 8.0 87 1.0 SSW 52 76 28 41 1005.3 1005.3 3.6
27/09:00pm 10.3 0.0 8.2 87 1.0 SSW 52 70 28 38 1005.2 1005.2 3.2
27/08:30pm 10.0 -0.8 7.8 86 1.1 SSW 54 78 29 42 1005.0 1005.0 3.2
27/08:00pm 9.6 -0.9 7.4 86 1.1 SSW 52 74 28 40 1004.6 1004.5 3.2
27/07:30pm 10.4 0.1 8.2 86 1.1 SSW 52 72 28 39 1004.3 1004.2 3.0
27/07:00pm 11.1 0.6 8.8 86 1.2 SSW 54 78 29 42 1003.8 1003.7 2.8
27/06:30pm 10.6 0.0 8.5 87 1.0 SSW 54 76 29 41 1003.1 1003.0 2.8
27/06:00pm 10.9 0.0 8.8 87 1.0 SSW 56 74 30 40 1002.5 1002.4 2.6
27/05:36pm 11.0 0.9 8.9 87 1.0 SSW 52 70 28 38 1001.9 1001.8 2.6
27/05:30pm 11.1 1.0 9.0 87 1.0 SSW 52 69 28 37 1001.8 1001.7 2.6
27/05:00pm 11.2 0.7 8.9 86 1.2 SSW 54 74 29 40 1001.1 1001.0 2.4
27/04:30pm 11.6 1.6 9.3 86 1.2 SSW 52 76 28 41 1000.5 1000.4 2.4
27/04:02pm 12.5 4.1 9.7 83 1.4 SSW 44 76 24 41 1000.1 1000.0 1.4
27/04:00pm 12.8 4.7 10.2 84 1.4 SW 43 59 23 32 1000.2 1000.1 1.4
27/03:31pm 14.3 4.4 9.9 75 2.3 SW 52 70 28 38 999.4 999.4 1.2
27/03:30pm 14.3 4.1 9.9 75 2.3 SW 54 70 29 38 999.4 999.4 1.2
27/03:00pm 13.6 4.1 9.8 78 2.0 SW 50 72 27 39 999.1 999.1 1.2
27/02:34pm 13.0 4.8 10.4 84 1.4 SW 44 63 24 34 998.9 998.9 1.2
27/02:30pm 12.6 4.4 9.8 83 1.4 SW 43 59 23 32 999.0 999.0 1.2
27/02:26pm 12.5 4.7 9.7 83 1.4 SW 41 59 22 32 998.8 998.8 1.2
27/02:00pm 13.6 4.6 8.9 73 2.4 WSW 46 59 25 32 998.8 998.8 1.0
27/01:32pm 13.6 3.3 9.6 77 2.1 WSW 54 72 29 39 998.9 998.9 1.0
27/01:30pm 13.2 2.4 9.3 77 2.0 WSW 56 72 30 39 998.9 998.9 1.0
27/01:11pm 13.1 2.3 9.9 81 1.7 WSW 57 76 31 41 998.7 998.7 1.0
27/01:00pm 12.3 1.3 9.3 82 1.5 WSW 57 74 31 40 998.7 998.7 0.8
27/12:30pm 13.1 2.4 9.7 80 1.7 WSW 56 76 30 41 999.0 999.0 0.8
27/12:00pm 13.2 2.4 9.1 76 2.1 WSW 56 80 30 43 999.2 999.2 0.6
27/11:35am 12.0 2.4 9.4 84 1.3 WSW 50 69 27 37 999.3 999.3 0.6
27/11:30am 12.1 2.2 9.7 85 1.2 WSW 52 69 28 37 999.4 999.4 0.6
27/11:00am 11.5 2.5 8.7 83 1.4 WSW 46 67 25 36 999.9 999.8 0.4
27/10:30am 12.5 3.7 8.0 74 2.2 WSW 44 65 24 35 999.9 999.8 0.2
27/10:06am 13.0 3.9 8.3 73 2.3 WSW 46 65 25 35 999.7 999.7 0.2
27/10:00am 12.4 3.7 7.7 73 2.3 WSW 43 57 23 31 999.7 999.7 0.2
27/09:30am 13.0 4.2 7.9 71 2.5 SW 44 67 24 36 999.7 999.7 0.2
27/09:26am 12.8 4.1 7.9 72 2.4 SW 43 61 23 33 999.7 999.7 0.0
27/09:00am 12.9 4.4 8.6 75 2.2 SW 43 54 23 29 999.6 999.6 16.6
27/08:30am 11.9 3.4 9.3 84 1.3 SW 44 56 24 30 999.5 999.5 16.6
27/08:00am 11.6 3.2 9.0 84 1.3 WSW 43 56 23 30 999.2 999.2 16.6
27/07:38am 12.1 3.5 8.8 80 1.7 WSW 44 63 24 34 999.0 999.0 16.4
27/07:30am 13.0 4.5 8.5 74 2.3 W 43 57 23 31 998.8 998.8 16.2
27/07:00am 12.3 3.7 8.0 75 2.1 WNW 43 61 23 33 998.8 998.8 16.2
27/06:54am 12.7 4.1 8.0 73 2.3 W 43 61 23 33 998.8 998.8 16.2
27/06:30am 12.7 4.9 8.2 74 2.2 WNW 39 52 21 28 998.8 998.8 16.2
27/06:00am 12.6 4.8 8.3 75 2.2 WNW 39 52 21 28 999.0 999.0 16.2
27/05:30am 12.7 4.0 7.8 72 2.4 WNW 43 56 23 30 999.0 999.0 16.2
27/05:00am 12.6 4.8 8.1 74 2.2 WNW 39 52 21 28 999.3 999.3 16.2
27/04:30am 12.8 4.1 7.9 72 2.4 W 43 57 23 31 999.2 999.2 16.2
27/04:00am 12.4 4.3 6.9 69 2.7 W 39 52 21 28 999.4 999.4 16.2
27/03:30am 12.3 4.7 7.6 73 2.3 W 37 52 20 28 999.9 999.8 16.2
27/03:00am 11.9 3.6 7.6 75 2.1 W 41 54 22 29 1000.0 999.9 16.2
27/02:30am 11.7 3.5 8.4 80 1.6 W 41 54 22 29 1000.2 1000.1 16.2
27/02:00am 11.5 3.9 9.2 86 1.2 W 39 54 21 29 1000.5 1000.4 16.2
27/01:44am 11.3 4.1 9.2 87 1.1 W 37 57 20 31 1000.2 1000.1 16.2
27/01:30am 11.9 5.9 10.1 89 0.9 WNW 32 43 17 23 1000.5 1000.4 16.2
27/01:00am 11.5 5.4 9.9 90 0.8 WNW 32 43 17 23 1001.3 1001.2 16.2
27/12:30am 11.4 4.7 9.8 90 0.8 WNW 35 46 19 25 1001.4 1001.3 16.0
27/12:00am 11.8 5.3 10.2 90 0.8 WNW 35 44 19 24 1002.4 1002.3 15.2
 
Date/Time
WST
Temp
°C
App
Temp
°C
Dew
Point
°C
Rel
Hum
%
Delta-T
°C
Wind Press
QNH
hPa
Press
MSL
hPa
Rain since
9am
mm
Dir  Spd
km/h
Gust
km/h
Spd
kts
Gust
kts
26/11:30pm 12.0 5.9 10.4 90 0.8 WNW 33 46 18 25 1002.3 1002.2 14.2
26/11:00pm 11.9 4.2 10.1 89 0.9 WNW 41 54 22 29 1003.0 1002.9 13.4
26/10:30pm 12.3 5.5 10.7 90 0.8 WNW 37 46 20 25 1002.6 1002.5 12.6
26/10:00pm 12.3 4.3 10.5 89 0.9 WNW 43 57 23 31 1003.2 1003.1 12.4
26/09:38pm 12.4 4.4 10.6 89 0.9 WNW 43 61 23 33 1004.0 1003.9 11.4
26/09:30pm 12.4 5.3 10.8 90 0.8 W 39 52 21 28 1003.5 1003.4 11.4
26/09:01pm 12.6 4.8 11.0 90 0.8 WNW 43 61 23 33 1003.9 1003.8 11.0
26/09:00pm 12.8 5.4 11.2 90 0.9 WNW 41 56 22 30 1004.0 1003.9 11.0
26/08:30pm 12.6 7.2 11.0 90 0.8 W 30 37 16 20 1003.2 1003.1 10.4
26/08:00pm 12.8 8.3 11.4 91 0.7 W 26 33 14 18 1003.7 1003.6 10.0
26/07:30pm 12.2 5.8 10.6 90 0.8 W 35 44 19 24 1004.4 1004.3 8.4
26/07:00pm 13.0 7.7 11.4 90 0.9 W 30 39 16 21 1003.6 1003.5 7.2
26/06:30pm 13.2 7.6 11.6 90 0.9 W 32 43 17 23 1003.7 1003.6 6.8
26/06:00pm 12.7 6.4 10.9 89 1.0 WSW 35 46 19 25 1003.1 1003.0 6.2
26/05:30pm 13.3 6.0 11.5 89 1.0 WSW 41 52 22 28 1003.3 1003.2 6.0
26/05:02pm 14.3 8.6 11.8 85 1.4 WNW 33 46 18 25 1003.1 1003.0 3.2
26/05:00pm 15.7 10.6 13.7 88 1.1 NW 33 46 18 25 1002.9 1002.8 2.8
26/04:55pm 16.0 9.9 14.0 88 1.1 NW 39 56 21 30 1002.7 1002.6 2.2
26/04:30pm 15.9 9.3 13.6 86 1.3 NNW 41 61 22 33 1002.9 1002.8 0.4
26/04:16pm 16.3 10.0 13.6 84 1.5 NNW 39 65 21 35 1003.0 1002.9 0.4
26/04:00pm 17.0 9.9 13.5 80 2.0 N 43 57 23 31 1003.3 1003.2 0.0
26/03:30pm 17.3 9.5 13.0 76 2.4 N 46 65 25 35 1003.6 1003.5 0.0
26/03:29pm 17.3 9.5 13.0 76 2.4 N 46 65 25 35 1003.6 1003.5 0.0
26/03:00pm 17.3 10.3 12.6 74 2.6 N 41 52 22 28 1003.9 1003.8 0.0
26/02:30pm 17.8 10.2 12.3 70 3.1 N 44 65 24 35 1004.5 1004.4 0.0
26/02:04pm 17.4 9.9 12.1 71 2.9 N 43 61 23 33 1004.6 1004.5 0.0
26/02:00pm 17.6 10.2 12.5 72 2.9 N 43 57 23 31 1004.7 1004.7 0.0
26/01:30pm 17.6 11.4 12.7 73 2.7 N 37 50 20 27 1005.3 1005.3 0.0
26/01:00pm 18.5 13.3 13.4 72 2.9 N 33 43 18 23 1005.9 1005.9 0.0
26/12:30pm 18.7 13.3 12.9 69 3.3 N 33 43 18 23 1006.6 1006.6 0.0
26/12:00pm 19.3 14.8 13.9 71 3.1 N 30 41 16 22 1007.5 1007.5 0.0
26/11:30am 19.7 15.4 14.3 71 3.1 N 30 37 16 20 1008.0 1008.0 0.0
26/11:00am 19.0 13.9 13.6 71 3.1 N 33 43 18 23 1008.4 1008.4 0.0
26/10:30am 19.1 14.1 13.5 70 3.2 N 32 39 17 21 1008.8 1008.8 0.0
26/10:00am 18.5 13.9 13.4 72 2.9 N 30 39 16 21 1009.3 1009.3 0.0
26/09:30am 17.2 12.3 12.7 75 2.5 N 30 39 16 21 1009.7 1009.6 0.0
26/09:00am 17.5 12.2 13.0 75 2.5 N 33 44 18 24 1010.1 1010.0 0.0
26/08:30am 17.0 11.5 12.3 74 2.6 N 33 44 18 24 1010.6 1010.5 0.0
26/08:00am 16.0 10.4 11.6 75 2.4 N 32 44 17 24 1010.9 1010.8 0.0
26/07:30am 15.8 10.0 11.4 75 2.4 N 33 41 18 22 1010.9 1010.8 0.0
26/07:00am 15.4 9.7 11.0 75 2.4 N 32 39 17 21 1011.1 1011.0 0.0
26/06:30am 15.2 9.8 10.8 75 2.3 N 30 37 16 20 1011.2 1011.1 0.0
26/06:00am 15.4 9.3 10.6 73 2.6 N 33 46 18 25 1011.4 1011.3 0.0
26/05:30am 15.3 9.2 10.3 72 2.6 N 33 43 18 23 1011.4 1011.3 0.0
26/05:00am 15.1 8.9 9.9 71 2.7 NNE 33 41 18 22 1011.3 1011.2 0.0
26/04:30am 14.9 8.6 9.7 71 2.7 NNE 33 43 18 23 1011.5 1011.4 0.0
26/04:00am 14.8 8.0 9.4 70 2.8 NNE 35 44 19 24 1012.1 1012.0 0.0
26/03:30am 14.8 8.0 9.2 69 2.9 NNE 35 44 19 24 1012.2 1012.1 0.0
26/03:00am 14.6 8.2 9.4 71 2.7 NNE 33 41 18 22 1012.5 1012.5 0.0
26/02:30am 14.3 7.7 8.7 69 2.8 NNE 33 43 18 23 1013.3 1013.3 0.0
26/02:00am 13.9 7.4 8.1 68 2.9 NE 32 39 17 21 1014.0 1014.0 0.0
26/01:30am 13.8 7.3 8.2 69 2.8 NE 32 37 17 20 1014.5 1014.5 0.0
26/01:00am 13.9 6.4 8.1 68 2.9 NE 37 46 20 25 1014.5 1014.5 0.0
26/12:30am 13.8 6.7 8.2 69 2.8 NE 35 43 19 23 1015.1 1015.1 0.0
26/12:00am 13.6 6.9 8.0 69 2.8 NE 33 41 18 22 1015.5 1015.5 0.0
 
Date/Time
WST
Temp
°C
App
Temp
°C
Dew
Point
°C
Rel
Hum
%
Delta-T
°C
Wind Press
QNH
hPa
Press
MSL
hPa
Rain since
9am
mm
Dir  Spd
km/h
Gust
km/h
Spd
kts
Gust
kts
25/11:30pm 13.8 7.1 8.0 68 2.9 NE 33 43 18 23 1015.8 1015.8 0.0
25/11:00pm 13.8 7.4 8.4 70 2.7 NE 32 41 17 22 1016.5 1016.5 0.0
25/10:30pm 13.5 7.0 8.1 70 2.7 NE 32 39 17 21 1017.0 1017.0 0.0
25/10:00pm 13.6 7.6 8.7 72 2.5 NE 30 37 16 20 1017.7 1017.7 0.0
25/09:30pm 13.7 7.6 8.1 69 2.8 NE 30 37 16 20 1018.4 1018.4 0.0
25/09:00pm 13.9 7.8 8.3 69 2.8 NE 30 37 16 20 1018.5 1018.5 0.0
25/08:30pm 13.7 8.4 8.3 70 2.7 ENE 26 33 14 18 1019.0 1018.9 0.0
25/08:00pm 13.0 9.2 8.9 76 2.1 NE 19 24 10 13 1018.7 1018.7 0.0
25/07:30pm 12.2 8.5 8.1 76 2.0 ENE 17 20 9 11 1018.6 1018.6 0.0
25/07:00pm 12.3 8.9 7.6 73 2.3 ENE 15 19 8 10 1018.7 1018.7 0.0
25/06:30pm 12.4 8.5 7.3 71 2.5 ENE 17 20 9 11 1018.5 1018.5 0.0
25/06:00pm 13.0 9.2 7.5 69 2.7 ENE 17 20 9 11 1018.5 1018.5 0.0
25/05:30pm 13.8 9.4 7.3 65 3.2 ENE 20 28 11 15 1018.4 1018.4 0.0
25/05:00pm 14.8 10.4 7.6 62 3.6 NE 20 26 11 14 1018.3 1018.3 0.0
25/04:30pm 15.6 11.3 7.9 60 3.9 NE 20 26 11 14 1018.8 1018.8 0.0
25/04:00pm 16.0 11.4 8.0 59 4.0 NNE 22 26 12 14 1019.1 1019.0 0.0
25/03:30pm 16.5 12.1 9.0 61 3.9 NE 22 28 12 15 1019.4 1019.3 0.0
25/03:00pm 16.3 11.4 8.3 59 4.1 NE 24 30 13 16 1019.6 1019.5 0.0
25/02:30pm 16.4 11.5 8.6 60 4.0 NE 24 30 13 16 1019.9 1019.8 0.0
25/02:00pm 16.0 11.0 8.2 60 4.0 NE 24 30 13 16 1020.3 1020.3 0.0
25/01:30pm 16.0 11.1 8.5 61 3.8 NE 24 30 13 16 1021.0 1021.0 0.0
25/01:00pm 16.0 11.2 8.7 62 3.7 NE 24 32 13 17 1021.5 1021.5 0.0
25/12:30pm 16.0 11.2 9.0 63 3.6 NE 24 32 13 17 1022.1 1022.1 0.0
25/12:00pm 15.7 10.6 9.1 65 3.4 NE 26 32 14 17 1022.7 1022.7 0.0
25/11:30am 15.0 9.7 8.5 65 3.3 NE 26 32 14 17 1023.3 1023.3 0.0
25/11:00am 14.6 8.8 8.1 65 3.3 NE 28 33 15 18 1023.8 1023.8 0.0
25/10:30am 14.4 9.1 8.4 67 3.0 NE 26 32 14 17 1024.2 1024.2 0.0

Other Formats:

Comma delimited format used in spreadsheet applications
http://www.bom.gov.au/fwo/IDW60801/IDW60801.94600.axf

JavaScript Object Notation format (JSON) in row-major order
http://www.bom.gov.au/fwo/IDW60801/IDW60801.94600.json